createdAt,value
2023-03-28T00:00:40.429Z,13.65
2023-03-28T00:01:44.991Z,13.25
2023-03-28T00:02:47.677Z,16.48
2023-03-28T00:03:52.844Z,15.73
2023-03-28T00:04:55.067Z,16.23
2023-03-28T00:06:01.106Z,15.63
2023-03-28T00:07:06.004Z,12.07
2023-03-28T00:08:12.017Z,12.30
2023-03-28T00:09:17.030Z,11.82
2023-03-28T00:10:19.265Z,12.25
2023-03-28T00:11:25.661Z,11.50
2023-03-28T00:12:28.982Z,12.82
2023-03-28T00:13:33.858Z,15.27
2023-03-28T00:14:36.350Z,13.95
2023-03-28T00:15:42.101Z,11.95
2023-03-28T00:16:48.343Z,13.98
2023-03-28T00:17:52.649Z,14.73
2023-03-28T00:18:57.350Z,15.48
2023-03-28T00:19:59.494Z,15.30
2023-03-28T00:21:04.062Z,13.13
2023-03-28T00:22:08.817Z,14.68
2023-03-28T00:23:14.173Z,11.30
2023-03-28T00:24:17.840Z,11.70
2023-03-28T00:25:22.455Z,18.35
2023-03-28T00:26:26.880Z,10.98
2023-03-28T00:27:33.623Z,11.48
2023-03-28T00:28:35.972Z,14.27
2023-03-28T00:29:40.835Z,11.70
2023-03-28T00:30:42.873Z,12.55
2023-03-28T00:31:47.562Z,13.68
2023-03-28T00:32:49.674Z,14.35
2023-03-28T00:33:54.375Z,13.75
2023-03-28T00:34:56.574Z,17.17
2023-03-28T00:36:01.510Z,13.18
2023-03-28T00:37:04.864Z,13.38
2023-03-28T00:38:14.231Z,10.73
2023-03-28T00:39:16.437Z,11.82
2023-03-28T00:40:22.133Z,12.35
2023-03-28T00:41:26.851Z,19.20
2023-03-28T00:42:31.541Z,16.50
2023-03-28T00:43:39.482Z,15.90
2023-03-28T00:44:52.837Z,16.35
2023-03-28T00:46:08.265Z,14.85
2023-03-28T00:47:41.031Z,12.63
2023-03-28T00:48:53.591Z,12.25
2023-03-28T00:49:59.928Z,15.38
2023-03-28T00:51:05.622Z,15.32
2023-03-28T00:52:09.160Z,17.20
2023-03-28T00:53:19.937Z,15.18
2023-03-28T00:54:23.672Z,13.23
2023-03-28T00:55:31.953Z,17.25
2023-03-28T00:56:38.070Z,11.55
2023-03-28T00:57:43.733Z,12.00
2023-03-28T00:58:48.126Z,10.98
2023-03-28T00:59:52.820Z,14.85
2023-03-28T01:00:56.265Z,13.68
2023-03-28T01:02:01.219Z,14.52
2023-03-28T01:03:07.020Z,14.40
2023-03-28T01:04:11.800Z,22.42
2023-03-28T01:05:14.316Z,14.45
2023-03-28T01:06:21.778Z,13.23
2023-03-28T01:07:25.235Z,12.27
2023-03-28T01:08:34.145Z,11.77
2023-03-28T01:09:36.697Z,12.93
2023-03-28T01:10:41.697Z,11.23
2023-03-28T01:11:46.337Z,11.65
2023-03-28T01:12:51.397Z,13.13
2023-03-28T01:13:55.882Z,13.75
2023-03-28T01:15:01.041Z,17.55
2023-03-28T01:16:07.058Z,16.80
2023-03-28T01:17:09.143Z,13.05
2023-03-28T01:18:16.549Z,12.98
2023-03-28T01:19:30.743Z,14.25
2023-03-28T01:20:56.942Z,13.70
2023-03-28T01:22:28.212Z,13.55
2023-03-28T01:24:11.675Z,12.37
2023-03-28T01:26:05.186Z,10.95
2023-03-28T01:28:28.840Z,15.00
2023-03-28T01:30:17.609Z,10.95
2023-03-28T01:31:54.364Z,11.40
2023-03-28T01:33:30.636Z,15.20
2023-03-28T01:34:51.391Z,12.68
2023-03-28T01:36:34.504Z,19.55
2023-03-28T01:37:49.093Z,14.15
2023-03-28T01:38:58.136Z,16.83
2023-03-28T01:40:19.368Z,17.23
2023-03-28T01:41:28.784Z,15.80
2023-03-28T01:42:40.474Z,14.80
2023-03-28T01:43:52.181Z,15.65
2023-03-28T01:45:07.261Z,15.65
2023-03-28T01:46:16.272Z,13.48
2023-03-28T01:47:30.331Z,18.08
2023-03-28T01:48:41.191Z,17.85
2023-03-28T01:49:52.426Z,20.38
2023-03-28T01:51:01.426Z,19.67
2023-03-28T01:52:18.227Z,18.50
2023-03-28T01:53:30.715Z,15.43
2023-03-28T01:54:43.514Z,13.68
2023-03-28T01:55:52.300Z,14.63
2023-03-28T01:57:05.152Z,15.10
2023-03-28T01:58:14.320Z,17.40
2023-03-28T01:59:24.495Z,14.38
2023-03-28T02:00:31.192Z,14.70
2023-03-28T02:01:41.448Z,16.08
2023-03-28T02:02:49.565Z,14.02
2023-03-28T02:03:57.365Z,16.98
2023-03-28T02:05:04.498Z,19.45
2023-03-28T02:06:12.457Z,21.02
2023-03-28T02:07:16.861Z,15.68
2023-03-28T02:08:23.092Z,20.65
2023-03-28T02:09:28.804Z,13.45
2023-03-28T02:10:35.431Z,15.25
2023-03-28T02:11:39.120Z,23.08
2023-03-28T02:12:48.801Z,12.45
2023-03-28T02:13:56.335Z,14.25
2023-03-28T02:15:05.142Z,18.75
2023-03-28T02:16:10.898Z,16.77
2023-03-28T02:17:19.417Z,15.02
2023-03-28T02:18:29.901Z,16.70
2023-03-28T02:19:37.972Z,15.98
2023-03-28T02:20:42.954Z,13.75
2023-03-28T02:21:53.964Z,13.60
2023-03-28T02:23:00.700Z,15.38
2023-03-28T02:24:05.664Z,14.88
2023-03-28T02:25:10.719Z,16.63
2023-03-28T02:26:15.513Z,12.00
2023-03-28T02:27:18.712Z,16.33
2023-03-28T02:28:24.707Z,13.85
2023-03-28T02:29:28.602Z,12.13
2023-03-28T02:30:33.217Z,13.30
2023-03-28T02:31:36.348Z,12.43
2023-03-28T02:32:44.186Z,11.65
2023-03-28T02:33:48.172Z,12.98
2023-03-28T02:34:55.184Z,12.57
2023-03-28T02:36:07.052Z,16.52
2023-03-28T02:37:22.454Z,17.13
2023-03-28T02:38:33.311Z,13.70
2023-03-28T02:39:48.592Z,14.43
2023-03-28T02:41:02.101Z,13.90
2023-03-28T02:42:23.352Z,14.43
2023-03-28T02:43:42.279Z,13.52
2023-03-28T02:44:59.956Z,13.07
2023-03-28T02:46:28.483Z,14.85
2023-03-28T02:47:36.097Z,13.15
2023-03-28T02:48:52.828Z,13.60
2023-03-28T02:50:09.872Z,16.48
2023-03-28T02:51:22.791Z,14.38
2023-03-28T02:52:37.262Z,17.10
2023-03-28T02:53:48.842Z,12.02
2023-03-28T02:56:05.807Z,16.63
2023-03-28T02:57:11.860Z,15.50
2023-03-28T02:58:21.450Z,13.82
2023-03-28T02:59:28.635Z,13.98
2023-03-28T03:00:33.403Z,13.48
2023-03-28T03:01:36.935Z,12.15
2023-03-28T03:02:42.657Z,13.82
2023-03-28T03:03:46.015Z,12.48
2023-03-28T03:04:51.220Z,13.93
2023-03-28T03:05:53.271Z,12.40
2023-03-28T03:06:57.956Z,16.38
2023-03-28T03:07:59.992Z,15.85
2023-03-28T03:09:04.989Z,14.65
2023-03-28T03:10:10.359Z,15.60
2023-03-28T03:11:17.667Z,13.48
2023-03-28T03:12:20.018Z,13.18
2023-03-28T03:13:24.804Z,12.32
2023-03-28T03:14:27.402Z,9.75
2023-03-28T03:15:32.360Z,11.52
2023-03-28T03:16:34.755Z,12.48
2023-03-28T03:17:39.557Z,14.38
2023-03-28T03:18:41.757Z,12.52
2023-03-28T03:19:46.469Z,11.98
2023-03-28T03:20:50.454Z,13.07
2023-03-28T03:21:55.581Z,12.18
2023-03-28T03:22:57.649Z,14.70
2023-03-28T03:24:02.366Z,13.40
2023-03-28T03:25:06.916Z,15.63
2023-03-28T03:26:12.125Z,16.52
2023-03-28T03:27:16.916Z,12.68
2023-03-28T03:28:21.801Z,18.67
2023-03-28T03:29:23.803Z,14.88
2023-03-28T03:30:28.504Z,12.98
2023-03-28T03:31:32.332Z,12.90
2023-03-28T03:32:37.069Z,16.67
2023-03-28T03:33:39.232Z,17.63
2023-03-28T03:34:44.249Z,18.30
2023-03-28T03:35:46.360Z,19.05
2023-03-28T03:36:53.278Z,17.38
2023-03-28T03:37:55.355Z,15.98
2023-03-28T03:39:00.154Z,17.85
2023-03-28T03:40:02.226Z,18.80
2023-03-28T03:41:07.335Z,18.00
2023-03-28T03:42:09.464Z,21.10
2023-03-28T03:43:16.757Z,16.33
2023-03-28T03:44:18.814Z,21.67
2023-03-28T03:45:23.497Z,15.70
2023-03-28T03:46:25.779Z,19.95
2023-03-28T03:47:30.422Z,19.10
2023-03-28T03:48:32.472Z,16.35
2023-03-28T03:49:37.417Z,14.23
2023-03-28T03:50:39.531Z,16.77
2023-03-28T03:51:44.238Z,15.52
2023-03-28T03:52:46.397Z,17.80
2023-03-28T03:53:51.998Z,18.48
2023-03-28T03:54:54.195Z,17.83
2023-03-28T03:56:03.208Z,15.48
2023-03-28T03:57:05.498Z,21.27
2023-03-28T03:58:10.185Z,19.67
2023-03-28T03:59:16.321Z,17.70
2023-03-28T04:00:21.193Z,16.80
2023-03-28T04:01:26.036Z,17.27
2023-03-28T04:02:30.838Z,18.52
2023-03-28T04:03:34.093Z,24.17
2023-03-28T04:04:40.700Z,17.83
2023-03-28T04:05:42.781Z,19.55
2023-03-28T04:06:47.421Z,18.30
2023-03-28T04:07:49.739Z,16.60
2023-03-28T04:08:54.473Z,14.70
2023-03-28T04:09:57.217Z,18.65
2023-03-28T04:11:01.841Z,18.23
2023-03-28T04:12:04.315Z,20.42
2023-03-28T04:13:08.957Z,18.02
2023-03-28T04:14:11.143Z,11.82
2023-03-28T04:15:18.502Z,20.02
2023-03-28T04:16:21.091Z,14.73
2023-03-28T04:17:30.283Z,15.05
2023-03-28T04:18:35.871Z,17.70
2023-03-28T04:19:40.829Z,15.82
2023-03-28T04:20:47.108Z,18.52
2023-03-28T04:21:49.417Z,16.27
2023-03-28T04:22:54.881Z,15.50
2023-03-28T04:23:57.579Z,17.67
2023-03-28T04:25:03.509Z,20.88
2023-03-28T04:26:08.987Z,17.58
2023-03-28T04:27:13.771Z,19.20
2023-03-28T04:28:16.285Z,16.27
2023-03-28T04:29:25.300Z,16.35
2023-03-28T04:30:30.051Z,16.58
2023-03-28T04:31:36.284Z,18.20
2023-03-28T04:32:40.873Z,22.52
2023-03-28T04:33:49.822Z,19.98
2023-03-28T04:34:51.982Z,20.20
2023-03-28T04:36:02.351Z,19.80
2023-03-28T04:37:06.151Z,20.85
2023-03-28T04:38:20.363Z,21.77
2023-03-28T04:39:27.264Z,18.10
2023-03-28T04:40:29.872Z,17.95
2023-03-28T04:41:35.030Z,19.38
2023-03-28T04:42:37.432Z,23.35
2023-03-28T04:43:42.291Z,19.55
2023-03-28T04:44:44.610Z,22.35
2023-03-28T04:45:52.096Z,29.20
2023-03-28T04:46:55.192Z,36.03
2023-03-28T04:47:59.893Z,32.55
2023-03-28T04:49:01.990Z,31.67
2023-03-28T04:50:07.298Z,33.13
2023-03-28T04:51:09.678Z,39.22
2023-03-28T04:52:14.362Z,42.63
2023-03-28T04:53:17.604Z,31.08
2023-03-28T04:54:22.895Z,32.47
2023-03-28T04:55:25.806Z,26.98
2023-03-28T04:56:30.497Z,35.42
2023-03-28T04:57:32.686Z,31.50
2023-03-28T04:58:37.894Z,34.03
2023-03-28T04:59:39.944Z,30.23
2023-03-28T05:00:46.123Z,29.63
2023-03-28T05:01:50.917Z,30.80
2023-03-28T05:02:57.479Z,31.23
2023-03-28T05:04:02.252Z,28.48
2023-03-28T05:05:04.904Z,28.98
2023-03-28T05:06:10.259Z,26.88
2023-03-28T05:07:12.371Z,24.42
2023-03-28T05:08:19.103Z,26.67
2023-03-28T05:09:22.779Z,23.13
2023-03-28T05:10:27.690Z,21.85
2023-03-28T05:11:31.290Z,21.45
2023-03-28T05:12:36.162Z,27.90
2023-03-28T05:13:38.230Z,26.90
2023-03-28T05:14:43.048Z,28.27
2023-03-28T05:15:47.217Z,24.27
2023-03-28T05:16:54.507Z,27.75
2023-03-28T05:17:56.696Z,24.15
2023-03-28T05:19:01.401Z,29.73
2023-03-28T05:20:08.540Z,30.30
2023-03-28T05:21:13.157Z,26.85
2023-03-28T05:22:15.555Z,26.58
2023-03-28T05:23:20.598Z,30.23
2023-03-28T05:24:22.703Z,39.65
2023-03-28T05:25:27.476Z,72.47
2023-03-28T05:26:30.824Z,73.15
2023-03-28T05:27:35.599Z,46.15
2023-03-28T05:28:40.831Z,41.38
2023-03-28T05:29:42.995Z,34.88
2023-03-28T05:30:47.660Z,31.50
2023-03-28T05:31:52.287Z,32.15
2023-03-28T05:32:57.090Z,30.65
2023-03-28T05:33:59.257Z,41.35
2023-03-28T05:35:04.008Z,41.15
2023-03-28T05:36:06.932Z,28.65
2023-03-28T05:37:11.601Z,30.67
2023-03-28T05:38:14.529Z,28.98
2023-03-28T05:39:19.391Z,25.77
2023-03-28T05:40:21.705Z,23.92
2023-03-28T05:41:26.724Z,27.33
2023-03-28T05:42:28.748Z,30.23
2023-03-28T05:43:33.485Z,30.83
2023-03-28T05:44:35.589Z,30.23
2023-03-28T05:45:40.367Z,37.60
2023-03-28T05:46:42.449Z,25.30
2023-03-28T05:47:49.755Z,28.48
2023-03-28T05:48:51.888Z,30.63
2023-03-28T05:49:56.614Z,30.08
2023-03-28T05:51:01.473Z,33.70
2023-03-28T05:52:03.847Z,47.17
2023-03-28T05:53:08.574Z,97.72
2023-03-28T05:54:13.265Z,42.78
2023-03-28T05:55:17.964Z,58.28
2023-03-28T05:56:20.097Z,72.53
2023-03-28T05:57:25.613Z,62.10
2023-03-28T05:58:27.666Z,28.70
2023-03-28T05:59:32.756Z,25.35
2023-03-28T06:00:34.854Z,22.80
2023-03-28T06:01:42.703Z,21.10
2023-03-28T06:02:50.710Z,20.40
2023-03-28T06:03:55.493Z,19.02
2023-03-28T06:04:58.166Z,21.00
2023-03-28T06:06:02.861Z,20.27
2023-03-28T06:07:06.241Z,22.13
2023-03-28T06:08:11.091Z,22.30
2023-03-28T06:09:13.149Z,21.45
2023-03-28T06:10:18.577Z,23.35
2023-03-28T06:11:20.598Z,17.77
2023-03-28T06:12:25.505Z,17.33
2023-03-28T06:13:30.237Z,16.35
2023-03-28T06:14:32.705Z,16.85
2023-03-28T06:15:37.328Z,16.33
2023-03-28T06:16:39.446Z,16.80
2023-03-28T06:17:44.158Z,15.77
2023-03-28T06:18:48.822Z,18.45
2023-03-28T06:19:53.913Z,16.08
2023-03-28T06:20:56.206Z,16.35
2023-03-28T06:22:00.886Z,14.73
2023-03-28T06:23:05.792Z,16.00
2023-03-28T06:24:07.939Z,19.88
2023-03-28T06:25:13.070Z,19.98
2023-03-28T06:26:15.118Z,20.50
2023-03-28T06:27:19.743Z,16.73
2023-03-28T06:28:21.861Z,16.20
2023-03-28T06:29:26.555Z,14.68
2023-03-28T06:30:31.392Z,15.52
2023-03-28T06:31:36.438Z,18.55
2023-03-28T06:32:38.557Z,18.25
2023-03-28T06:33:43.829Z,19.73
2023-03-28T06:34:51.124Z,16.70
2023-03-28T06:35:53.251Z,16.63
2023-03-28T06:36:57.970Z,19.02
2023-03-28T06:38:03.537Z,19.55
2023-03-28T06:39:05.877Z,22.35
2023-03-28T06:40:12.094Z,19.83
2023-03-28T06:41:14.218Z,20.13
2023-03-28T06:42:18.920Z,22.88
2023-03-28T06:43:23.609Z,16.30
2023-03-28T06:44:25.949Z,19.70
2023-03-28T06:45:30.650Z,16.55
2023-03-28T06:46:32.794Z,15.32
2023-03-28T06:47:37.510Z,17.65
2023-03-28T06:48:39.983Z,16.13
2023-03-28T06:49:44.648Z,16.08
2023-03-28T06:50:50.470Z,14.77
2023-03-28T06:51:55.184Z,15.02
2023-03-28T06:53:00.714Z,14.82
2023-03-28T06:54:05.502Z,18.25
2023-03-28T06:55:08.696Z,16.92
2023-03-28T06:56:14.173Z,17.05
2023-03-28T06:57:19.174Z,19.90
2023-03-28T06:58:25.349Z,16.10
2023-03-28T06:59:27.566Z,22.75
2023-03-28T07:00:32.228Z,16.98
2023-03-28T07:01:34.408Z,17.33
2023-03-28T07:02:39.446Z,18.65
2023-03-28T07:03:41.841Z,19.38
2023-03-28T07:04:46.638Z,13.60
2023-03-28T07:05:51.495Z,14.75
2023-03-28T07:06:56.177Z,16.13
2023-03-28T07:07:58.222Z,13.95
2023-03-28T07:09:05.457Z,15.60
2023-03-28T07:10:12.287Z,16.48
2023-03-28T07:11:14.384Z,21.30
2023-03-28T07:12:19.064Z,18.15
2023-03-28T07:13:21.231Z,20.58
2023-03-28T07:14:26.027Z,13.57
2023-03-28T07:15:28.458Z,14.65
2023-03-28T07:16:33.318Z,13.13
2023-03-28T07:17:38.081Z,13.93
2023-03-28T07:18:41.370Z,13.05
2023-03-28T07:19:46.233Z,12.40
2023-03-28T07:21:03.303Z,13.90
2023-03-28T07:22:08.911Z,15.68
2023-03-28T07:23:10.968Z,18.67
2023-03-28T07:24:15.660Z,20.00
2023-03-28T07:25:18.064Z,16.13
2023-03-28T07:26:22.716Z,15.70
2023-03-28T07:27:27.684Z,16.58
2023-03-28T07:28:29.929Z,13.25
2023-03-28T07:29:34.622Z,13.70
2023-03-28T07:30:36.923Z,12.90
2023-03-28T07:31:41.715Z,17.35
2023-03-28T07:33:54.383Z,12.63
2023-03-28T07:34:56.629Z,13.18
2023-03-28T07:36:04.027Z,12.82
2023-03-28T07:37:06.684Z,15.13
2023-03-28T07:38:11.364Z,15.23
2023-03-28T07:39:13.455Z,16.00
2023-03-28T07:40:18.258Z,16.50
2023-03-28T07:41:23.045Z,12.65
2023-03-28T07:42:25.160Z,15.70
2023-03-28T07:44:00.558Z,9.98
2023-03-28T07:45:05.353Z,15.70
2023-03-28T07:46:09.820Z,20.45
2023-03-28T07:47:14.609Z,18.48
2023-03-28T07:48:16.667Z,18.38
2023-03-28T07:49:21.675Z,14.45
2023-03-28T07:50:25.008Z,17.65
2023-03-28T07:51:33.002Z,15.35
2023-03-28T07:52:37.699Z,15.10
2023-03-28T07:53:42.811Z,14.07
2023-03-28T07:54:45.273Z,17.08
2023-03-28T07:55:54.831Z,18.65
2023-03-28T07:57:00.835Z,12.82
2023-03-28T07:58:03.263Z,13.38
2023-03-28T07:59:07.918Z,15.23
2023-03-28T08:00:13.253Z,13.98
2023-03-28T08:01:18.961Z,16.08
2023-03-28T08:02:21.086Z,12.70
2023-03-28T08:03:26.130Z,17.08
2023-03-28T08:04:30.862Z,14.25
2023-03-28T08:05:34.454Z,11.00
2023-03-28T08:06:43.437Z,10.30
2023-03-28T08:07:46.258Z,16.38
2023-03-28T08:08:50.926Z,17.10
2023-03-28T08:09:55.747Z,12.02
2023-03-28T08:11:02.267Z,10.73
2023-03-28T08:12:07.356Z,10.55
2023-03-28T08:13:09.415Z,12.60
2023-03-28T08:14:16.316Z,16.30
2023-03-28T08:15:21.257Z,12.70
2023-03-28T08:16:26.131Z,10.98
2023-03-28T08:17:28.370Z,13.45
2023-03-28T08:18:33.048Z,11.20
2023-03-28T08:19:35.141Z,12.25
2023-03-28T08:20:39.792Z,11.00
2023-03-28T08:21:47.166Z,13.63
2023-03-28T08:22:49.364Z,13.57
2023-03-28T08:23:54.360Z,11.65
2023-03-28T08:24:56.503Z,12.52
2023-03-28T08:26:06.414Z,10.77
2023-03-28T08:27:08.635Z,13.80
2023-03-28T08:28:13.851Z,13.88
2023-03-28T08:29:15.947Z,14.70
2023-03-28T08:30:20.761Z,15.02
2023-03-28T08:31:27.022Z,12.68
2023-03-28T08:32:31.853Z,13.13
2023-03-28T08:33:34.136Z,10.75
2023-03-28T08:34:38.982Z,15.13
2023-03-28T08:35:41.874Z,10.88
2023-03-28T08:36:49.480Z,11.55
2023-03-28T08:37:52.420Z,14.23
2023-03-28T08:39:00.836Z,11.55
2023-03-28T08:40:07.176Z,10.70
2023-03-28T08:41:27.236Z,16.50
2023-03-28T08:42:43.567Z,11.13
2023-03-28T08:44:08.504Z,9.93
2023-03-28T08:45:22.600Z,12.98
2023-03-28T08:46:31.214Z,11.88
2023-03-28T08:47:44.457Z,9.98
2023-03-28T08:50:42.354Z,14.93
2023-03-28T08:51:54.418Z,9.95
2023-03-28T08:52:56.539Z,9.98
2023-03-28T08:54:08.468Z,13.00
2023-03-28T08:55:28.178Z,15.05
2023-03-28T08:56:37.437Z,18.42
2023-03-28T08:57:42.576Z,13.45
2023-03-28T08:58:57.208Z,12.10
2023-03-28T09:00:09.084Z,11.75
2023-03-28T09:01:14.146Z,17.35
2023-03-28T09:02:18.913Z,12.38
2023-03-28T09:03:26.427Z,13.80
2023-03-28T09:04:33.240Z,9.18
2023-03-28T09:05:46.492Z,17.75
2023-03-28T09:07:02.835Z,13.00
2023-03-28T09:08:21.704Z,16.58
2023-03-28T09:09:38.549Z,12.43
2023-03-28T09:12:58.476Z,11.48
2023-03-28T09:14:21.986Z,13.00
2023-03-28T09:15:34.089Z,11.98
2023-03-28T09:16:53.810Z,15.68
2023-03-28T09:18:18.692Z,12.57
2023-03-28T09:19:48.847Z,13.82
2023-03-28T09:20:57.530Z,12.45
2023-03-28T09:22:19.570Z,14.05
2023-03-28T09:24:58.796Z,11.00
2023-03-28T09:26:12.985Z,12.73
2023-03-28T09:27:25.476Z,11.35
2023-03-28T09:28:39.076Z,14.57
2023-03-28T09:29:46.516Z,10.02
2023-03-28T09:30:53.226Z,11.95
2023-03-28T09:32:00.139Z,11.00
2023-03-28T09:33:09.045Z,11.10
2023-03-28T09:34:19.046Z,19.88
2023-03-28T09:35:25.972Z,12.48
2023-03-28T09:36:45.580Z,14.55
2023-03-28T09:37:57.424Z,12.68
2023-03-28T09:39:02.394Z,10.50
2023-03-28T09:40:19.393Z,11.20
2023-03-28T09:41:29.607Z,11.02
2023-03-28T09:42:42.401Z,12.98
2023-03-28T09:43:51.508Z,11.75
2023-03-28T09:45:03.039Z,15.88
2023-03-28T09:46:10.432Z,14.35
2023-03-28T09:47:12.835Z,19.35
2023-03-28T09:48:24.521Z,21.77
2023-03-28T09:49:27.052Z,10.23
2023-03-28T09:50:32.425Z,12.57
2023-03-28T09:51:37.140Z,14.52
2023-03-28T09:52:39.489Z,16.55
2023-03-28T09:53:47.120Z,14.00
2023-03-28T09:54:49.205Z,231.90
2023-03-28T09:56:04.450Z,542.47
2023-03-28T09:57:07.103Z,356.90
2023-03-28T09:58:14.986Z,347.73
2023-03-28T09:59:28.789Z,221.63
2023-03-28T10:00:35.717Z,22.52
2023-03-28T10:01:43.919Z,175.73
2023-03-28T10:02:52.504Z,202.55
2023-03-28T10:03:57.883Z,58.30
2023-03-28T10:05:04.743Z,82.75
2023-03-28T10:06:20.026Z,55.63
2023-03-28T10:07:37.130Z,16.63
2023-03-28T10:09:11.220Z,9.55
2023-03-28T10:10:20.476Z,50.33
2023-03-28T10:11:25.494Z,13.77
2023-03-28T10:12:33.834Z,13.20
2023-03-28T10:13:44.094Z,11.00
2023-03-28T10:16:50.273Z,9.95
2023-03-28T10:17:53.094Z,7.53
2023-03-28T10:18:58.041Z,5.65
2023-03-28T10:20:02.334Z,6.38
2023-03-28T10:21:13.369Z,8.85
2023-03-28T10:22:21.122Z,11.15
2023-03-28T10:23:27.516Z,6.78
2023-03-28T10:24:35.522Z,14.98
2023-03-28T10:25:40.059Z,7.80
2023-03-28T10:26:44.976Z,7.22
2023-03-28T10:27:48.630Z,11.52
2023-03-28T10:28:57.716Z,7.50
2023-03-28T10:30:11.952Z,9.15
2023-03-28T10:31:29.582Z,15.10
2023-03-28T10:32:32.102Z,16.05
2023-03-28T10:33:38.512Z,7.55
2023-03-28T10:34:40.926Z,6.55
2023-03-28T10:35:47.775Z,95.38
2023-03-28T10:36:52.446Z,15.25
2023-03-28T10:37:55.507Z,6.53
2023-03-28T10:39:00.789Z,9.95
2023-03-28T10:40:22.616Z,10.27
2023-03-28T10:42:42.756Z,21.27
2023-03-28T10:43:47.415Z,51.28
2023-03-28T10:44:59.425Z,12.27
2023-03-28T10:46:05.806Z,9.63
2023-03-28T10:47:16.819Z,16.52
2023-03-28T10:48:21.835Z,17.88
2023-03-28T10:49:26.900Z,11.32
2023-03-28T10:50:36.631Z,9.27
2023-03-28T10:51:44.166Z,12.20
2023-03-28T10:52:54.584Z,20.83
2023-03-28T10:54:19.064Z,259.15
2023-03-28T10:55:31.147Z,43.85
2023-03-28T10:56:41.730Z,28.73
2023-03-28T10:57:54.699Z,21.50
2023-03-28T10:59:12.744Z,15.57
2023-03-28T11:00:25.309Z,22.23
2023-03-28T11:01:33.555Z,15.43
2023-03-28T11:03:16.284Z,126.03
2023-03-28T11:04:30.285Z,57.10
2023-03-28T11:05:44.335Z,249.88
2023-03-28T11:06:57.709Z,109.68
2023-03-28T11:08:09.705Z,17.48
2023-03-28T11:09:22.680Z,19.02
2023-03-28T11:10:33.609Z,12.32
2023-03-28T11:11:50.829Z,9.20
2023-03-28T11:13:11.340Z,13.40
2023-03-28T11:14:24.711Z,12.57
2023-03-28T11:15:34.357Z,21.65
2023-03-28T11:16:48.838Z,12.55
2023-03-28T11:18:04.918Z,10.80
2023-03-28T11:19:21.242Z,10.20
2023-03-28T11:20:34.640Z,43.42
2023-03-28T11:21:45.880Z,11.98
2023-03-28T11:23:23.386Z,23.13
2023-03-28T11:24:33.065Z,12.68
2023-03-28T11:25:49.221Z,10.85
2023-03-28T11:27:15.658Z,42.08
2023-03-28T11:28:30.681Z,13.68
2023-03-28T11:29:44.326Z,10.75
2023-03-28T11:30:50.956Z,10.18
2023-03-28T11:32:06.141Z,10.70
2023-03-28T11:33:18.916Z,13.30
2023-03-28T11:34:29.124Z,12.85
2023-03-28T11:35:38.152Z,62.13
2023-03-28T11:36:49.757Z,15.23
2023-03-28T11:39:12.286Z,8.80
2023-03-28T11:40:25.246Z,11.20
2023-03-28T11:41:33.391Z,12.48
2023-03-28T11:42:43.491Z,11.05
2023-03-28T11:43:53.268Z,8.75
2023-03-28T11:45:05.396Z,8.30
2023-03-28T11:46:14.521Z,10.63
2023-03-28T11:47:25.292Z,11.43
2023-03-28T11:48:33.486Z,11.70
2023-03-28T11:49:53.651Z,10.93
2023-03-28T11:52:34.349Z,13.30
2023-03-28T11:54:53.902Z,8.80
2023-03-28T11:56:04.379Z,12.60
2023-03-28T11:57:21.329Z,10.90
2023-03-28T11:58:26.019Z,11.27
2023-03-28T11:59:36.042Z,10.63
2023-03-28T12:00:42.528Z,9.88
2023-03-28T12:01:51.561Z,10.45
2023-03-28T12:03:02.499Z,11.25
2023-03-28T12:04:13.569Z,16.48
2023-03-28T12:05:24.570Z,17.20
2023-03-28T12:06:33.988Z,12.50
2023-03-28T12:07:46.187Z,13.07
2023-03-28T12:08:57.350Z,13.43
2023-03-28T12:10:11.633Z,12.75
2023-03-28T12:11:19.581Z,15.43
2023-03-28T12:12:31.943Z,33.15
2023-03-28T12:13:46.232Z,18.52
2023-03-28T12:14:55.549Z,45.60
2023-03-28T12:16:03.136Z,16.73
2023-03-28T12:17:20.109Z,18.33
2023-03-28T12:18:29.994Z,22.75
2023-03-28T12:19:39.754Z,21.20
2023-03-28T12:20:52.275Z,20.58
2023-03-28T12:22:02.977Z,27.77
2023-03-28T12:23:12.718Z,15.73
2023-03-28T12:24:25.079Z,16.67
2023-03-28T12:25:36.082Z,13.93
2023-03-28T12:26:57.054Z,58.00
2023-03-28T12:28:12.983Z,10.50
2023-03-28T12:29:22.929Z,10.65
2023-03-28T12:30:33.082Z,11.48
2023-03-28T12:31:49.548Z,13.73
2023-03-28T12:33:01.890Z,10.32
2023-03-28T12:34:15.279Z,15.23
2023-03-28T12:35:25.160Z,13.27
2023-03-28T12:36:37.676Z,13.07
2023-03-28T12:37:58.426Z,13.50
2023-03-28T12:39:14.316Z,11.00
2023-03-28T12:40:28.263Z,11.13
2023-03-28T12:41:37.775Z,13.85
2023-03-28T12:42:41.948Z,14.18
2023-03-28T12:43:52.763Z,11.25
2023-03-28T12:45:00.026Z,12.60
2023-03-28T12:46:08.578Z,11.18
2023-03-28T12:47:19.129Z,16.98
2023-03-28T12:48:34.103Z,13.98
2023-03-28T12:49:40.561Z,12.80
2023-03-28T12:50:51.539Z,13.40
2023-03-28T12:52:01.515Z,17.52
2023-03-28T12:53:03.899Z,10.25
2023-03-28T12:54:11.629Z,14.95
2023-03-28T12:55:46.518Z,10.50
2023-03-28T12:57:02.954Z,11.07
2023-03-28T12:58:23.005Z,8.50
2023-03-28T13:00:07.949Z,11.25
2023-03-28T13:01:48.581Z,9.85
2023-03-28T13:02:59.136Z,9.68
2023-03-28T13:04:14.632Z,11.63
2023-03-28T13:05:27.574Z,12.32
2023-03-28T13:06:42.664Z,9.43
2023-03-28T13:08:00.976Z,82.43
2023-03-28T13:09:22.058Z,18.08
2023-03-28T13:10:35.913Z,48.27
2023-03-28T13:11:44.832Z,73.25
2023-03-28T13:13:00.583Z,31.63
2023-03-28T13:14:12.386Z,24.35
2023-03-28T13:15:35.834Z,14.82
2023-03-28T13:16:49.890Z,11.70
2023-03-28T13:18:24.425Z,27.42
2023-03-28T13:19:48.499Z,13.73
2023-03-28T13:20:52.161Z,11.52
2023-03-28T13:22:00.442Z,15.15
2023-03-28T13:23:10.834Z,12.85
2023-03-28T13:24:33.773Z,13.75
2023-03-28T13:25:39.111Z,19.20
2023-03-28T13:27:00.158Z,38.65
2023-03-28T13:28:25.398Z,16.55
2023-03-28T13:29:48.633Z,15.73
2023-03-28T13:31:22.418Z,15.15
2023-03-28T13:32:26.221Z,13.30
2023-03-28T13:33:35.791Z,13.93
2023-03-28T13:34:37.969Z,28.30
2023-03-28T13:35:47.233Z,16.65
2023-03-28T13:36:54.943Z,15.23
2023-03-28T13:38:16.652Z,14.45
2023-03-28T13:39:27.725Z,18.40
2023-03-28T13:40:48.331Z,11.77
2023-03-28T13:42:01.153Z,13.65
2023-03-28T13:43:03.263Z,14.90
2023-03-28T13:44:13.179Z,11.95
2023-03-28T13:45:22.487Z,13.02
2023-03-28T13:46:33.795Z,14.68
2023-03-28T13:47:43.575Z,13.65
2023-03-28T13:48:51.166Z,15.57
2023-03-28T13:50:03.752Z,12.80
2023-03-28T13:51:09.635Z,12.95
2023-03-28T13:52:18.450Z,14.18
2023-03-28T13:53:20.608Z,12.85
2023-03-28T13:54:28.386Z,14.18
2023-03-28T13:55:30.530Z,13.18
2023-03-28T13:56:40.597Z,12.57
2023-03-28T13:57:45.353Z,12.70
2023-03-28T13:58:49.734Z,11.88
2023-03-28T13:59:58.749Z,12.70
2023-03-28T14:01:08.505Z,14.82
2023-03-28T14:02:21.644Z,14.02
2023-03-28T14:03:26.194Z,15.95
2023-03-28T14:04:33.529Z,15.80
2023-03-28T14:05:53.097Z,14.93
2023-03-28T14:06:56.472Z,13.57
2023-03-28T14:08:22.148Z,11.68
2023-03-28T14:09:35.226Z,13.63
2023-03-28T14:10:43.833Z,12.55
2023-03-28T14:11:49.697Z,12.43
2023-03-28T14:12:53.689Z,14.13
2023-03-28T14:14:09.779Z,13.80
2023-03-28T14:15:16.932Z,16.30
2023-03-28T14:16:23.178Z,16.25
2023-03-28T14:17:45.988Z,16.08
2023-03-28T14:18:51.463Z,13.70
2023-03-28T14:19:59.564Z,13.23
2023-03-28T14:21:02.646Z,12.75
2023-03-28T14:22:10.219Z,12.43
2023-03-28T14:23:28.974Z,14.90
2023-03-28T14:24:33.839Z,13.25
2023-03-28T14:25:36.577Z,13.85
2023-03-28T14:26:45.165Z,33.08
2023-03-28T14:27:52.223Z,14.82
2023-03-28T14:29:03.386Z,14.57
2023-03-28T14:30:18.726Z,14.63
2023-03-28T14:31:32.823Z,14.18
2023-03-28T14:32:54.518Z,13.30
2023-03-28T14:34:05.128Z,13.52
2023-03-28T14:35:22.320Z,15.85
2023-03-28T14:36:24.565Z,16.92
2023-03-28T14:37:30.037Z,14.82
2023-03-28T14:38:34.838Z,12.80
2023-03-28T14:39:40.890Z,11.98
2023-03-28T14:40:46.039Z,9.68
2023-03-28T14:41:50.778Z,13.00
2023-03-28T14:42:56.116Z,13.15
2023-03-28T14:44:02.332Z,12.38
2023-03-28T14:45:05.170Z,11.63
2023-03-28T14:46:12.628Z,14.80
2023-03-28T14:47:17.623Z,15.82
2023-03-28T14:48:29.269Z,15.90
2023-03-28T14:50:38.949Z,13.23
2023-03-28T14:51:45.550Z,12.88
2023-03-28T14:52:48.185Z,13.35
2023-03-28T14:53:54.145Z,12.80
2023-03-28T14:55:00.047Z,13.70
2023-03-28T14:56:10.597Z,12.55
2023-03-28T14:57:18.302Z,16.42